Time;durP1;ratioP1;P1;durP2;ratioP2;P2;SDS_P1;SDS_P2;PMS_P1;PMS_P2;Temp;Humidity;BMP_temperature;BMP_pressure;BME280_temperature;BME280_humidity;BME280_pressure;Samples;Min_cycle;Max_cycle;Signal;HPM_P1;HPM_P2
2024/03/05 05:30:38;;;;;;;0.10;0.10;;;5.10;88.20;;;;;;5686554;23;20480;-75
2024/03/05 05:33:03;;;;;;;0.10;0.10;;;5.10;88.20;;;;;;4875187;29;20029;-75
2024/03/05 05:35:29;;;;;;;0.10;0.10;;;5.00;88.10;;;;;;4864044;29;20033;-75
2024/03/05 05:37:56;;;;;;;0.10;0.10;;;5.00;88.10;;;;;;4865453;29;20037;-75
2024/03/05 05:40:22;;;;;;;0.17;0.17;;;5.00;88.00;;;;;;4871914;29;20021;-75
2024/03/05 05:42:49;;;;;;;0.10;0.10;;;5.00;87.90;;;;;;4882203;29;20397;-75
2024/03/05 05:45:15;;;;;;;0.10;0.10;;;4.90;88.30;;;;;;4882570;29;20034;-75
2024/03/05 05:47:48;;;;;;;0.10;0.10;;;4.90;88.30;;;;;;4866202;29;20031;-75
2024/03/05 05:50:17;;;;;;;0.10;0.10;;;4.90;88.20;;;;;;4878258;29;20017;-74
2024/03/05 05:52:52;;;;;;;0.10;0.10;;;4.90;88.30;;;;;;4862184;29;20030;-76
2024/03/05 05:55:21;;;;;;;0.10;0.10;;;4.80;88.20;;;;;;4863776;29;20086;-75
2024/03/05 05:57:47;;;;;;;0.10;0.10;;;4.80;88.30;;;;;;4863310;29;20126;-73
2024/03/05 06:00:31;;;;;;;0.10;0.10;;;4.80;88.30;;;;;;4862456;29;20494;-73
2024/03/05 06:02:58;;;;;;;0.10;0.10;;;4.90;88.20;;;;;;4882252;29;20021;-74
2024/03/05 06:05:30;;;;;;;0.20;0.20;;;4.80;88.00;;;;;;4878507;29;20553;-74
2024/03/05 06:07:58;;;;;;;0.10;0.10;;;4.80;88.20;;;;;;4863743;29;20493;-74
2024/03/05 06:10:24;;;;;;;0.10;0.10;;;4.80;88.10;;;;;;4863585;29;20034;-75
2024/03/05 06:12:50;;;;;;;0.20;0.20;;;4.80;87.90;;;;;;4863463;29;20030;-74
2024/03/05 06:15:19;;;;;;;0.10;0.10;;;4.70;88.20;;;;;;4863622;29;20463;-74
2024/03/05 06:17:45;;;;;;;0.10;0.10;;;4.70;88.10;;;;;;4863241;29;20162;-74
2024/03/05 06:20:13;;;;;;;0.20;0.20;;;4.70;88.10;;;;;;4867345;29;20398;-74
2024/03/05 06:22:42;;;;;;;0.10;0.10;;;4.70;88.20;;;;;;4869967;29;20174;-74
2024/03/05 06:25:08;;;;;;;0.10;0.10;;;4.70;88.30;;;;;;4866760;29;20021;-74
2024/03/05 06:27:37;;;;;;;0.20;0.20;;;4.70;88.30;;;;;;4850505;29;20026;-74
2024/03/05 06:30:07;;;;;;;0.10;0.10;;;4.70;88.20;;;;;;4866182;29;20025;-74
2024/03/05 06:32:37;;;;;;;0.10;0.10;;;4.70;88.20;;;;;;4866651;29;20057;-74
2024/03/05 06:35:02;;;;;;;0.10;0.10;;;4.70;88.20;;;;;;4879547;29;20048;-74
2024/03/05 06:37:28;;;;;;;0.10;0.10;;;4.70;88.20;;;;;;4876321;29;20037;-74
2024/03/05 06:39:54;;;;;;;0.10;0.10;;;4.70;88.20;;;;;;4869479;29;20044;-74
2024/03/05 06:42:23;;;;;;;0.20;0.20;;;4.70;88.10;;;;;;4885552;29;20378;-74
2024/03/05 06:44:54;;;;;;;0.13;0.13;;;4.70;88.20;;;;;;4879127;29;20010;-74
2024/03/05 06:47:27;;;;;;;0.20;0.20;;;4.80;88.10;;;;;;4866784;29;20038;-75
2024/03/05 06:49:57;;;;;;;0.20;0.20;;;4.80;88.00;;;;;;4867378;29;20021;-74
2024/03/05 06:57:52;;;;;;;0.10;0.10;;;5.00;88.00;;;;;;4871111;29;20045;-74
2024/03/05 07:00:17;;;;;;;0.10;0.10;;;5.10;87.80;;;;;;4866305;29;20033;-74
2024/03/05 07:02:43;;;;;;;0.10;0.10;;;5.20;87.80;;;;;;4865183;29;20033;-74
2024/03/05 07:05:09;;;;;;;0.10;0.10;;;5.20;87.80;;;;;;4859361;29;20029;-75
2024/03/05 07:07:34;;;;;;;0.10;0.10;;;5.30;87.50;;;;;;4865109;29;20042;-74
2024/03/05 07:10:00;;;;;;;0.10;0.10;;;5.30;87.50;;;;;;4866227;29;20893;-74
2024/03/05 07:12:26;;;;;;;0.10;0.10;;;5.40;87.50;;;;;;4866361;29;20038;-74
2024/03/05 07:14:52;;;;;;;0.20;0.20;;;5.40;87.30;;;;;;4856519;29;20041;-74
2024/03/05 07:17:20;;;;;;;0.15;0.15;;;5.50;87.30;;;;;;4851688;29;20053;-74
2024/03/05 07:19:47;;;;;;;0.10;0.10;;;5.50;87.20;;;;;;4856258;29;20029;-74
2024/03/05 07:22:12;;;;;;;0.10;0.10;;;5.60;87.30;;;;;;4861034;29;20066;-74
2024/03/05 07:24:38;;;;;;;0.20;0.20;;;5.60;86.90;;;;;;4867840;29;20025;-74
2024/03/05 07:27:04;;;;;;;0.15;0.15;;;5.70;86.80;;;;;;4872789;29;20025;-74
2024/03/05 07:29:29;;;;;;;0.10;0.10;;;5.70;86.90;;;;;;4865422;29;20092;-74
2024/03/05 07:31:55;;;;;;;0.10;0.10;;;5.60;86.70;;;;;;4848718;29;20425;-74
2024/03/05 07:34:21;;;;;;;0.10;0.10;;;5.50;86.70;;;;;;4873160;29;20093;-74
2024/03/05 07:36:46;;;;;;;0.10;0.10;;;5.50;87.00;;;;;;4884426;29;20040;-74
2024/03/05 07:39:12;;;;;;;0.10;0.10;;;5.50;87.00;;;;;;4869241;29;20482;-74
2024/03/05 07:41:41;;;;;;;0.20;0.20;;;5.40;86.90;;;;;;4884210;29;20108;-74
2024/03/05 07:44:07;;;;;;;0.10;0.10;;;5.30;86.80;;;;;;4884106;29;20080;-74
2024/03/05 07:46:33;;;;;;;0.20;0.20;;;5.30;87.10;;;;;;4879640;29;20030;-74
2024/03/05 07:48:59;;;;;;;0.35;0.35;;;5.40;86.90;;;;;;4865479;29;20029;-74
2024/03/05 07:51:25;;;;;;;0.40;0.40;;;5.80;86.50;;;;;;4864360;29;20502;-74
2024/03/05 07:53:50;;;;;;;0.60;0.60;;;7.40;84.60;;;;;;4865418;29;20021;-74
2024/03/05 07:56:16;;;;;;;0.40;0.40;;;9.50;80.80;;;;;;4865567;29;20405;-74
2024/03/05 07:58:41;;;;;;;1.20;1.20;;;10.80;76.80;;;;;;4865447;29;20037;-74
2024/03/05 08:01:07;;;;;;;0.40;0.40;;;11.60;73.30;;;;;;4865314;29;20041;-75
2024/03/05 08:03:33;;;;;;;0.20;0.20;;;12.30;70.60;;;;;;4866255;29;20026;-75
2024/03/05 08:05:59;;;;;;;0.40;0.40;;;12.20;69.30;;;;;;4884164;29;20512;-75
2024/03/05 08:08:25;;;;;;;0.40;0.40;;;11.70;69.20;;;;;;4874105;29;20029;-75
2024/03/05 08:10:51;;;;;;;0.20;0.20;;;11.50;69.90;;;;;;4876227;29;20060;-75
2024/03/05 08:13:19;;;;;;;0.40;0.40;;;11.60;69.30;;;;;;4883735;29;20108;-74
2024/03/05 08:15:44;;;;;;;0.40;0.40;;;11.40;69.80;;;;;;4862908;29;20044;-75
2024/03/05 08:18:12;;;;;;;0.40;0.40;;;11.50;69.40;;;;;;4865047;29;20025;-74
2024/03/05 08:20:38;;;;;;;0.40;0.40;;;11.70;69.10;;;;;;4865042;29;20028;-74
2024/03/05 08:23:04;;;;;;;0.20;0.20;;;11.80;69.20;;;;;;4870914;29;20549;-74
2024/03/05 08:25:29;;;;;;;0.50;0.50;;;11.50;68.90;;;;;;4865043;29;20046;-74
2024/03/05 08:27:58;;;;;;;0.55;0.55;;;11.30;70.20;;;;;;4865051;29;20033;-75
2024/03/05 08:30:31;;;;;;;0.20;0.20;;;11.00;70.30;;;;;;4864596;29;20025;-75
2024/03/05 08:32:57;;;;;;;0.20;0.20;;;10.40;71.40;;;;;;4862732;29;20550;-75
2024/03/05 08:35:23;;;;;;;0.25;0.25;;;10.00;72.90;;;;;;4878797;29;20033;-74
2024/03/05 08:37:49;;;;;;;0.40;0.40;;;9.80;73.30;;;;;;4864922;29;20032;-75
2024/03/05 08:40:20;;;;;;;0.70;0.70;;;9.90;73.70;;;;;;4853672;29;20056;-75
2024/03/05 08:42:48;;;;;;;0.40;0.40;;;10.60;73.60;;;;;;4864918;29;20021;-75
2024/03/05 08:45:15;;;;;;;0.30;0.30;;;11.20;72.20;;;;;;4883174;29;20040;-75
2024/03/05 08:47:46;;;;;;;0.20;0.20;;;11.20;70.10;;;;;;4883506;29;20029;-75
2024/03/05 08:50:12;;;;;;;0.10;0.10;;;10.80;71.60;;;;;;4881083;29;20111;-74
2024/03/05 08:52:38;;;;;;;0.50;0.50;;;10.20;72.90;;;;;;4866473;29;20025;-74
2024/03/05 08:55:05;;;;;;;0.60;0.60;;;9.90;73.50;;;;;;4866394;29;20036;-75
2024/03/05 08:57:31;;;;;;;0.70;0.70;;;11.20;71.80;;;;;;4872915;29;20036;-74
2024/03/05 09:00:02;;;;;;;0.68;0.68;;;12.30;68.90;;;;;;4864317;29;20025;-74
2024/03/05 09:02:27;;;;;;;0.30;0.30;;;13.20;67.30;;;;;;4864479;29;20082;-75
2024/03/05 09:04:53;;;;;;;0.25;0.25;;;13.40;65.80;;;;;;4875657;29;20040;-75
2024/03/05 09:07:20;;;;;;;0.40;0.40;;;13.20;65.90;;;;;;4876522;29;20036;-75
2024/03/05 09:09:46;;;;;;;0.80;0.80;;;13.30;66.00;;;;;;4862844;29;20030;-75
2024/03/05 09:12:13;;;;;;;0.80;0.80;;;13.30;65.40;;;;;;4864339;29;20033;-75
2024/03/05 09:14:40;;;;;;;1.00;1.00;;;13.30;65.10;;;;;;4847914;29;20033;-74
2024/03/05 09:17:05;;;;;;;0.70;0.70;;;13.60;65.80;;;;;;4870782;29;20565;-75
2024/03/05 09:19:31;;;;;;;0.20;0.20;;;14.10;65.00;;;;;;4882608;29;20033;-75
2024/03/05 09:21:57;;;;;;;0.10;0.10;;;14.10;64.20;;;;;;4873976;29;20033;-74
2024/03/05 09:24:23;;;;;;;0.10;0.10;;;13.40;65.10;;;;;;4865891;29;20485;-74
2024/03/05 09:26:50;;;;;;;0.20;0.20;;;12.90;66.90;;;;;;4865175;29;20038;-75
2024/03/05 09:29:16;;;;;;;0.10;0.10;;;12.70;67.80;;;;;;4863715;29;20037;-74
2024/03/05 09:31:42;;;;;;;0.10;0.10;;;12.30;68.70;;;;;;4847345;29;20051;-75
2024/03/05 09:34:08;;;;;;;0.10;0.10;;;11.80;69.80;;;;;;4866172;29;20072;-75
2024/03/05 09:36:34;;;;;;;0.10;0.10;;;11.40;70.90;;;;;;4864109;29;20394;-75
2024/03/05 09:38:59;;;;;;;0.10;0.10;;;11.10;71.10;;;;;;4863648;29;20078;-74
2024/03/05 09:41:27;;;;;;;0.10;0.10;;;11.00;72.40;;;;;;4877976;29;20105;-74
2024/03/05 09:43:53;;;;;;;0.10;0.10;;;11.00;72.60;;;;;;4868219;29;20086;-75
2024/03/05 09:46:20;;;;;;;0.10;0.10;;;10.60;73.20;;;;;;4863756;29;20729;-74
2024/03/05 09:48:47;;;;;;;0.10;0.10;;;10.20;74.70;;;;;;4862791;29;20034;-75
2024/03/05 09:51:13;;;;;;;0.10;0.10;;;9.90;75.20;;;;;;4863765;29;20483;-75
2024/03/05 09:53:39;;;;;;;0.10;0.10;;;9.80;76.60;;;;;;4865215;29;20145;-74
2024/03/05 09:56:06;;;;;;;0.10;0.10;;;9.80;77.00;;;;;;4866466;29;20505;-75
2024/03/05 09:58:39;;;;;;;0.10;0.10;;;9.70;77.00;;;;;;4867288;29;20086;-74
2024/03/05 10:01:10;;;;;;;0.10;0.10;;;10.00;77.40;;;;;;4867681;29;20549;-75
2024/03/05 10:03:37;;;;;;;0.10;0.10;;;10.20;76.70;;;;;;4869073;29;20058;-75
2024/03/05 10:06:04;;;;;;;0.20;0.20;;;10.30;76.20;;;;;;4885644;29;20029;-76
2024/03/05 10:08:29;;;;;;;0.20;0.20;;;10.60;75.90;;;;;;4865912;29;20098;-75
2024/03/05 10:11:05;;;;;;;0.20;0.20;;;10.80;75.40;;;;;;4878064;29;20025;-76
2024/03/05 10:13:36;;;;;;;0.20;0.20;;;10.90;74.70;;;;;;4869324;29;20536;-76
2024/03/05 10:16:15;;;;;;;0.70;0.70;;;11.30;73.70;;;;;;4885565;29;20036;-75
2024/03/05 10:18:42;;;;;;;0.70;0.70;;;12.00;72.20;;;;;;4865136;29;20127;-75
2024/03/05 10:21:24;;;;;;;0.40;0.40;;;12.50;70.10;;;;;;4854071;29;20033;-75
2024/03/05 10:24:01;;;;;;;0.20;0.20;;;12.80;69.40;;;;;;4869115;29;20029;-75
2024/03/05 10:26:28;;;;;;;0.30;0.30;;;13.00;67.40;;;;;;4869941;29;20030;-76
2024/03/05 10:28:57;;;;;;;0.30;0.30;;;12.90;69.20;;;;;;4850506;29;20061;-76
2024/03/05 10:31:24;;;;;;;0.30;0.30;;;13.20;67.90;;;;;;4866993;29;20077;-76
2024/03/05 10:33:53;;;;;;;0.30;0.30;;;13.50;68.10;;;;;;4879494;29;20065;-75
2024/03/05 10:36:28;;;;;;;0.20;0.20;;;13.80;69.00;;;;;;4880951;29;20078;-76
2024/03/05 10:38:54;;;;;;;0.20;0.20;;;14.00;68.40;;;;;;4865482;29;20041;-76
2024/03/05 10:41:27;;;;;;;0.20;0.20;;;14.00;66.80;;;;;;4880635;29;20029;-75
2024/03/05 10:43:55;;;;;;;0.20;0.20;;;13.80;65.70;;;;;;4885607;29;20500;-75
2024/03/05 10:46:22;;;;;;;0.20;0.20;;;13.70;65.30;;;;;;4871564;29;20025;-76
2024/03/05 10:48:50;;;;;;;0.20;0.20;;;13.60;67.30;;;;;;4865761;29;20528;-76
2024/03/05 10:51:20;;;;;;;0.20;0.20;;;13.70;66.80;;;;;;4866650;29;20040;-75
2024/03/05 10:53:49;;;;;;;0.20;0.20;;;13.80;66.30;;;;;;4867866;29;20079;-76
2024/03/05 10:56:15;;;;;;;0.20;0.20;;;13.80;65.50;;;;;;4872794;29;20113;-76
2024/03/05 11:01:20;;;;;;;0.10;0.10;;;13.60;65.40;;;;;;4866995;29;20058;-76
2024/03/05 11:03:48;;;;;;;0.10;0.10;;;13.30;64.90;;;;;;4866883;29;20081;-75
2024/03/05 11:06:17;;;;;;;0.10;0.10;;;12.80;66.00;;;;;;4884067;29;20033;-75
2024/03/05 11:08:43;;;;;;;0.10;0.10;;;12.80;67.30;;;;;;4868530;29;20033;-75
2024/03/05 11:11:22;;;;;;;0.10;0.10;;;12.70;67.40;;;;;;4884919;29;20025;-76
2024/03/05 11:13:51;;;;;;;0.20;0.20;;;12.60;67.00;;;;;;4884327;29;20037;-75
2024/03/05 11:16:19;;;;;;;0.10;0.10;;;12.60;67.30;;;;;;4881870;29;20025;-76
2024/03/05 11:18:46;;;;;;;0.10;0.10;;;12.70;66.80;;;;;;4868002;29;20112;-75
2024/03/05 11:21:14;;;;;;;0.10;0.10;;;12.70;67.30;;;;;;4866653;29;20541;-76
2024/03/05 11:23:53;;;;;;;0.10;0.10;;;12.70;66.70;;;;;;4866110;29;20025;-76
2024/03/05 11:26:22;;;;;;;0.10;0.10;;;12.70;67.30;;;;;;4884879;29;20040;-76
2024/03/05 11:28:48;;;;;;;0.10;0.10;;;12.80;67.70;;;;;;4881886;29;20033;-76
2024/03/05 11:31:18;;;;;;;0.10;0.10;;;12.60;66.30;;;;;;4865758;29;20061;-76
2024/03/05 11:33:57;;;;;;;0.10;0.10;;;12.50;66.40;;;;;;4868776;29;20033;-77
2024/03/05 11:36:23;;;;;;;0.20;0.20;;;12.30;66.80;;;;;;4867481;29;20061;-76
2024/03/05 11:39:04;;;;;;;0.10;0.10;;;12.30;66.00;;;;;;4865883;29;20022;-77
2024/03/05 11:41:32;;;;;;;0.10;0.10;;;12.30;67.00;;;;;;4867155;29;20025;-76
2024/03/05 11:43:58;;;;;;;0.10;0.10;;;12.30;66.50;;;;;;4863987;29;20049;-75
2024/03/05 11:46:47;;;;;;;0.10;0.10;;;12.30;66.90;;;;;;4865410;29;20058;-75
2024/03/05 11:49:16;;;;;;;0.10;0.10;;;12.30;67.40;;;;;;4865633;29;20520;-75
2024/03/05 11:51:44;;;;;;;0.10;0.10;;;12.20;67.40;;;;;;4848681;29;20556;-75
2024/03/05 11:54:16;;;;;;;0.10;0.10;;;12.10;67.10;;;;;;4865512;29;20040;-75
2024/03/05 11:56:46;;;;;;;0.10;0.10;;;12.00;68.00;;;;;;4864227;29;20062;-75
2024/03/05 11:59:12;;;;;;;0.10;0.10;;;11.80;66.70;;;;;;4865405;29;20049;-75
2024/03/05 12:01:41;;;;;;;0.10;0.10;;;11.70;67.40;;;;;;4862966;29;20070;-75
2024/03/05 12:04:09;;;;;;;0.13;0.13;;;11.50;67.60;;;;;;4870618;29;20112;-75
2024/03/05 12:06:36;;;;;;;0.17;0.17;;;11.40;68.00;;;;;;4884278;29;20061;-74
2024/03/05 12:09:09;;;;;;;0.20;0.20;;;11.60;67.30;;;;;;4883453;29;20024;-75
2024/03/05 12:11:36;;;;;;;0.10;0.10;;;11.90;67.00;;;;;;4863273;29;20038;-75
2024/03/05 12:14:08;;;;;;;0.10;0.10;;;11.80;65.90;;;;;;4865263;29;20033;-75
2024/03/05 12:16:35;;;;;;;0.10;0.10;;;11.50;64.90;;;;;;4848220;29;20037;-75
2024/03/05 12:19:01;;;;;;;0.10;0.10;;;10.90;66.90;;;;;;4865029;29;20034;-75
2024/03/05 12:21:27;;;;;;;0.10;0.10;;;10.80;69.30;;;;;;4854461;29;20089;-75
2024/03/05 12:23:55;;;;;;;0.10;0.10;;;10.60;70.60;;;;;;4883520;29;20684;-75
2024/03/05 12:26:21;;;;;;;0.10;0.10;;;10.70;70.30;;;;;;4866875;29;20135;-76
2024/03/05 12:28:49;;;;;;;0.10;0.10;;;10.60;70.60;;;;;;4883389;29;20029;-75
2024/03/05 12:31:15;;;;;;;0.10;0.10;;;10.50;71.60;;;;;;4875716;29;20045;-75
2024/03/05 12:33:41;;;;;;;0.10;0.10;;;10.40;71.10;;;;;;4883522;29;20029;-74
2024/03/05 12:36:07;;;;;;;0.10;0.10;;;10.30;70.80;;;;;;4866735;29;20037;-75
2024/03/05 12:38:33;;;;;;;0.10;0.10;;;10.30;71.20;;;;;;4883215;29;20069;-75
2024/03/05 12:41:01;;;;;;;0.10;0.10;;;10.20;71.20;;;;;;4875702;29;20037;-75
2024/03/05 12:43:28;;;;;;;0.10;0.10;;;10.20;71.50;;;;;;4866536;29;20500;-75
2024/03/05 12:46:03;;;;;;;0.10;0.10;;;10.30;72.60;;;;;;4857835;29;20028;-75
2024/03/05 12:48:32;;;;;;;0.10;0.10;;;10.40;72.30;;;;;;4881631;29;20040;-75
2024/03/05 12:51:03;;;;;;;0.10;0.10;;;10.60;72.60;;;;;;4866388;29;20036;-75
2024/03/05 12:53:28;;;;;;;0.10;0.10;;;10.80;71.60;;;;;;4868692;29;20053;-75
2024/03/05 12:56:03;;;;;;;0.10;0.10;;;11.00;71.10;;;;;;4864636;29;20070;-75
2024/03/05 12:58:47;;;;;;;0.10;0.10;;;11.20;71.30;;;;;;4861890;29;20050;-75
2024/03/05 13:01:14;;;;;;;0.10;0.10;;;11.30;71.00;;;;;;4864380;29;20137;-75
2024/03/05 13:03:42;;;;;;;0.10;0.10;;;11.70;71.50;;;;;;4866621;29;20394;-75
2024/03/05 13:06:08;;;;;;;0.10;0.10;;;11.90;70.30;;;;;;4875410;29;20058;-74
2024/03/05 13:08:34;;;;;;;0.10;0.10;;;12.20;69.10;;;;;;4864477;29;20123;-75
2024/03/05 13:10:59;;;;;;;0.10;0.10;;;12.50;68.40;;;;;;4862071;29;20046;-75
2024/03/05 13:13:25;;;;;;;0.10;0.10;;;12.80;67.70;;;;;;4862814;29;20033;-75
2024/03/05 13:15:51;;;;;;;0.10;0.10;;;13.00;66.60;;;;;;4864012;29;20383;-75
2024/03/05 13:18:17;;;;;;;0.10;0.10;;;12.90;65.40;;;;;;4860270;29;20100;-75
2024/03/05 13:20:43;;;;;;;0.10;0.10;;;12.90;64.30;;;;;;4876527;29;20472;-76
2024/03/05 13:23:08;;;;;;;0.10;0.10;;;13.00;65.70;;;;;;4879765;29;20025;-75
2024/03/05 13:25:34;;;;;;;0.10;0.10;;;13.00;66.50;;;;;;4862213;29;20052;-76
2024/03/05 13:28:05;;;;;;;0.10;0.10;;;12.80;66.20;;;;;;4878600;29;20108;-76
2024/03/05 13:30:30;;;;;;;0.10;0.10;;;12.20;69.00;;;;;;4864368;29;20060;-77
2024/03/05 13:33:01;;;;;;;0.10;0.10;;;11.70;77.50;;;;;;4875900;29;20033;-77
2024/03/05 13:35:26;;;;;;;0.10;0.10;;;11.20;81.00;;;;;;4879436;29;20057;-76
2024/03/05 13:37:52;;;;;;;0.10;0.10;;;10.50;86.20;;;;;;4881023;29;20458;-76
2024/03/05 13:40:19;;;;;;;0.10;0.10;;;10.40;88.10;;;;;;4880679;29;20037;-76
2024/03/05 13:42:45;;;;;;;0.10;0.10;;;10.20;88.40;;;;;;4863325;29;20025;-76
2024/03/05 13:45:15;;;;;;;0.10;0.10;;;10.10;87.80;;;;;;4864128;29;20548;-76
2024/03/05 13:47:48;;;;;;;0.10;0.10;;;10.00;88.50;;;;;;4879293;29;20017;-76
2024/03/05 13:50:15;;;;;;;0.10;0.10;;;10.00;88.80;;;;;;4881422;29;20553;-77
2024/03/05 13:52:42;;;;;;;0.10;0.10;;;9.90;87.60;;;;;;4877749;29;20025;-76
2024/03/05 13:55:10;;;;;;;0.10;0.10;;;10.00;88.30;;;;;;4881012;29;20069;-76
2024/03/05 13:57:36;;;;;;;0.10;0.10;;;10.00;86.90;;;;;;4878791;29;20124;-76
2024/03/05 14:00:05;;;;;;;0.10;0.10;;;9.90;86.10;;;;;;4862598;29;20033;-77
2024/03/05 14:02:31;;;;;;;0.10;0.10;;;9.90;86.70;;;;;;4863812;29;20029;-76
2024/03/05 14:04:56;;;;;;;0.10;0.10;;;10.10;86.60;;;;;;4882005;29;20029;-77
2024/03/05 14:07:22;;;;;;;0.10;0.10;;;10.40;86.20;;;;;;4865158;29;20021;-76
2024/03/05 14:09:48;;;;;;;0.10;0.10;;;10.70;86.20;;;;;;4875632;29;20409;-77
2024/03/05 14:12:13;;;;;;;0.10;0.10;;;10.70;86.00;;;;;;4848736;29;20038;-76
2024/03/05 14:14:41;;;;;;;0.10;0.10;;;10.70;85.30;;;;;;4846892;29;20054;-77
2024/03/05 14:17:09;;;;;;;0.10;0.10;;;10.70;84.80;;;;;;4863831;29;20026;-78
2024/03/05 14:19:35;;;;;;;0.10;0.10;;;10.70;84.20;;;;;;4846818;29;20038;-76
2024/03/05 14:22:00;;;;;;;0.10;0.10;;;10.70;83.40;;;;;;4871089;29;20108;-76
2024/03/05 14:24:27;;;;;;;0.10;0.10;;;10.60;84.10;;;;;;4878516;29;20037;-77
2024/03/05 14:26:53;;;;;;;0.10;0.10;;;10.50;84.20;;;;;;4876409;29;20462;-76
2024/03/05 14:29:19;;;;;;;0.10;0.10;;;10.40;84.20;;;;;;4864795;29;20833;-76
2024/03/05 14:31:45;;;;;;;0.10;0.10;;;10.30;84.50;;;;;;4879089;29;20045;-76
2024/03/05 14:34:12;;;;;;;0.20;0.20;;;10.30;84.80;;;;;;4878123;29;20037;-78
2024/03/05 14:36:38;;;;;;;0.20;0.20;;;10.50;85.20;;;;;;4864149;29;20113;-77
2024/03/05 14:39:10;;;;;;;0.10;0.10;;;10.90;83.90;;;;;;4877919;29;20074;-78
2024/03/05 14:41:36;;;;;;;0.10;0.10;;;11.20;82.90;;;;;;4880242;29;20025;-78
2024/03/05 14:44:04;;;;;;;0.20;0.20;;;11.60;82.30;;;;;;4884870;29;20048;-78
2024/03/05 14:46:31;;;;;;;0.10;0.10;;;11.80;80.90;;;;;;4885090;29;20021;-78
2024/03/05 14:48:56;;;;;;;0.13;0.13;;;12.00;80.50;;;;;;4866993;29;20405;-80
2024/03/05 14:51:25;;;;;;;0.20;0.20;;;12.20;80.00;;;;;;4884880;29;20025;-78
2024/03/05 14:53:52;;;;;;;0.10;0.10;;;12.30;79.50;;;;;;4884548;29;20057;-81
2024/03/05 14:56:18;;;;;;;0.10;0.10;;;12.30;79.60;;;;;;4882831;29;20112;-76
2024/03/05 14:58:44;;;;;;;0.10;0.10;;;12.30;78.60;;;;;;4883317;29;20049;-77
2024/03/05 15:01:11;;;;;;;0.10;0.10;;;12.40;78.70;;;;;;4882690;29;20021;-77
2024/03/05 15:03:37;;;;;;;0.10;0.10;;;12.20;78.40;;;;;;4866132;29;20116;-78
2024/03/05 15:06:04;;;;;;;0.10;0.10;;;11.80;78.00;;;;;;4867618;29;20032;-77
2024/03/05 15:08:30;;;;;;;0.10;0.10;;;11.40;75.70;;;;;;4883953;29;20064;-77
2024/03/05 15:10:56;;;;;;;0.10;0.10;;;10.80;78.10;;;;;;4884199;29;20111;-79
2024/03/05 15:13:23;;;;;;;0.10;0.10;;;10.20;81.00;;;;;;4863707;29;20912;-79
2024/03/05 15:15:49;;;;;;;0.10;0.10;;;9.90;82.80;;;;;;4883716;29;20021;-80
2024/03/05 15:18:15;;;;;;;0.10;0.10;;;9.90;83.70;;;;;;4867272;29;20029;-79
2024/03/05 15:20:41;;;;;;;0.10;0.10;;;10.00;82.60;;;;;;4882066;29;20493;-78
2024/03/05 15:23:07;;;;;;;0.10;0.10;;;10.20;82.80;;;;;;4882076;29;20089;-77
2024/03/05 15:25:36;;;;;;;0.10;0.10;;;10.30;83.30;;;;;;4883534;29;20021;-77
2024/03/05 15:28:03;;;;;;;0.10;0.10;;;10.70;82.50;;;;;;4883352;29;20068;-78
2024/03/05 15:30:30;;;;;;;0.17;0.17;;;11.00;80.30;;;;;;4866027;29;20101;-77
2024/03/05 15:32:56;;;;;;;0.20;0.20;;;11.20;80.50;;;;;;4866844;29;20041;-78
2024/03/05 15:35:23;;;;;;;0.10;0.10;;;11.40;80.30;;;;;;4879626;29;20032;-78
2024/03/05 15:37:50;;;;;;;0.10;0.10;;;11.50;79.00;;;;;;4880893;29;20069;-77
2024/03/05 15:40:18;;;;;;;0.10;0.10;;;11.50;78.50;;;;;;4877360;29;20933;-78
2024/03/05 15:42:49;;;;;;;0.10;0.10;;;11.40;78.70;;;;;;4867479;29;20055;-78
2024/03/05 15:45:16;;;;;;;0.10;0.10;;;11.30;78.70;;;;;;4884257;29;20021;-77
2024/03/05 15:47:43;;;;;;;0.10;0.10;;;11.30;79.40;;;;;;4883481;29;20043;-77
2024/03/05 15:50:17;;;;;;;0.10;0.10;;;11.20;79.00;;;;;;4866703;29;20044;-77
2024/03/05 15:52:50;;;;;;;0.10;0.10;;;11.20;79.40;;;;;;4881924;29;20790;-80
2024/03/05 15:55:17;;;;;;;0.10;0.10;;;11.10;77.20;;;;;;4864776;29;20037;-74
2024/03/05 15:58:07;;;;;;;0.10;0.10;;;11.00;78.20;;;;;;4847049;29;20034;-75
2024/03/05 16:00:36;;;;;;;0.10;0.10;;;11.00;79.20;;;;;;4863414;29;20029;-75
2024/03/05 16:03:11;;;;;;;0.10;0.10;;;11.00;79.40;;;;;;4882532;29;20025;-75
2024/03/05 16:05:38;;;;;;;0.10;0.10;;;10.90;78.40;;;;;;4881562;29;20497;-75
2024/03/05 16:08:08;;;;;;;0.10;0.10;;;10.90;78.80;;;;;;4881828;29;20057;-75
2024/03/05 16:10:35;;;;;;;0.10;0.10;;;10.90;79.10;;;;;;4866190;29;20454;-75
2024/03/05 16:13:02;;;;;;;0.10;0.10;;;10.80;79.60;;;;;;4883012;29;20100;-76
2024/03/05 16:15:28;;;;;;;0.10;0.10;;;10.80;79.50;;;;;;4881358;29;20021;-76
2024/03/05 16:17:55;;;;;;;0.10;0.10;;;10.80;78.70;;;;;;4883131;29;20032;-76
2024/03/05 16:20:28;;;;;;;0.13;0.13;;;10.80;79.30;;;;;;4883262;29;20021;-75
2024/03/05 16:22:54;;;;;;;0.10;0.10;;;10.80;79.00;;;;;;4864003;29;20037;-76
2024/03/05 16:25:24;;;;;;;0.10;0.10;;;11.00;79.10;;;;;;4865926;29;20509;-75
2024/03/05 16:27:55;;;;;;;0.10;0.10;;;11.20;78.90;;;;;;4873596;29;20062;-75
2024/03/05 16:30:27;;;;;;;0.10;0.10;;;11.20;77.30;;;;;;4863901;29;20427;-74
2024/03/05 16:32:56;;;;;;;0.10;0.10;;;11.30;77.80;;;;;;4868225;29;20037;-75
2024/03/05 16:35:26;;;;;;;0.17;0.17;;;11.50;77.90;;;;;;4864200;29;20055;-74
2024/03/05 16:37:51;;;;;;;0.10;0.10;;;11.70;77.10;;;;;;4866116;29;20057;-75
2024/03/05 16:40:20;;;;;;;0.10;0.10;;;11.80;74.50;;;;;;4863997;29;20476;-74
2024/03/05 16:42:52;;;;;;;0.10;0.10;;;11.80;75.30;;;;;;4882166;29;20025;-75
2024/03/05 16:45:18;;;;;;;0.10;0.10;;;11.80;76.30;;;;;;4880624;29;20097;-75
2024/03/05 16:47:48;;;;;;;0.10;0.10;;;11.70;76.30;;;;;;4881880;29;20025;-75
2024/03/05 16:50:17;;;;;;;0.10;0.10;;;11.60;75.30;;;;;;4865573;29;20032;-75
2024/03/05 16:52:44;;;;;;;0.10;0.10;;;11.40;75.50;;;;;;4880024;29;20066;-76
2024/03/05 16:55:14;;;;;;;0.10;0.10;;;11.20;76.00;;;;;;4882119;29;20875;-76
2024/03/05 16:57:40;;;;;;;0.10;0.10;;;11.00;76.60;;;;;;4882132;29;20492;-79
2024/03/05 17:00:16;;;;;;;0.10;0.10;;;10.80;76.40;;;;;;4882080;29;20045;-77
2024/03/05 17:02:44;;;;;;;0.10;0.10;;;10.70;77.20;;;;;;4860841;29;20053;-77
2024/03/05 17:05:20;;;;;;;0.10;0.10;;;10.50;77.00;;;;;;4865980;29;20040;-78
2024/03/05 17:07:47;;;;;;;0.10;0.10;;;10.50;77.90;;;;;;4882296;29;20025;-78
2024/03/05 17:10:18;;;;;;;0.10;0.10;;;10.30;77.90;;;;;;4883310;29;20925;-77
2024/03/05 17:12:48;;;;;;;0.10;0.10;;;10.30;77.20;;;;;;4863014;29;20116;-77
2024/03/05 17:15:19;;;;;;;0.10;0.10;;;10.20;77.30;;;;;;4881674;29;20116;-85
2024/03/05 17:17:48;;;;;;;0.10;0.10;;;10.10;77.80;;;;;;4864563;29;20074;-77
2024/03/05 17:20:17;;;;;;;0.20;0.20;;;10.10;78.30;;;;;;4880036;29;20060;-75
2024/03/05 17:22:46;;;;;;;0.10;0.10;;;10.10;78.30;;;;;;4881541;29;20472;-78
2024/03/05 17:25:11;;;;;;;0.10;0.10;;;10.00;78.90;;;;;;4876982;29;20031;-79
2024/03/05 17:27:38;;;;;;;0.10;0.10;;;9.90;78.50;;;;;;4876303;29;20025;-79
2024/03/05 17:30:09;;;;;;;0.10;0.10;;;9.70;78.40;;;;;;4877663;29;20040;-78
2024/03/05 17:32:38;;;;;;;0.10;0.10;;;9.70;79.30;;;;;;4862048;29;20056;-77
2024/03/05 17:35:05;;;;;;;0.10;0.10;;;9.60;79.10;;;;;;4881710;29;20097;-78
2024/03/05 17:37:32;;;;;;;0.10;0.10;;;9.50;80.10;;;;;;4862917;29;20029;-77
2024/03/05 17:39:58;;;;;;;0.10;0.10;;;9.50;80.30;;;;;;4865076;29;20397;-78
2024/03/05 17:42:24;;;;;;;0.10;0.10;;;9.40;80.60;;;;;;4878642;29;20048;-75
2024/03/05 17:44:50;;;;;;;0.10;0.10;;;9.30;80.60;;;;;;4848389;29;20032;-76
2024/03/05 17:47:19;;;;;;;0.10;0.10;;;9.20;80.50;;;;;;4881390;29;20025;-76
2024/03/05 17:49:45;;;;;;;0.10;0.10;;;9.20;81.30;;;;;;4881612;29;20473;-76
2024/03/05 17:52:11;;;;;;;0.10;0.10;;;9.10;81.30;;;;;;4877475;29;20136;-77
2024/03/05 17:54:37;;;;;;;0.10;0.10;;;9.00;81.30;;;;;;4880365;29;20085;-76
2024/03/05 17:57:03;;;;;;;0.10;0.10;;;8.80;80.90;;;;;;4881394;29;20029;-76
2024/03/05 17:59:29;;;;;;;0.10;0.10;;;8.70;81.50;;;;;;4878618;29;20056;-75
2024/03/05 18:01:57;;;;;;;0.10;0.10;;;8.60;81.10;;;;;;4881415;29;20041;-76
2024/03/05 18:04:23;;;;;;;0.10;0.10;;;8.60;82.00;;;;;;4880544;29;20029;-76
2024/03/05 18:06:49;;;;;;;0.10;0.10;;;8.60;82.70;;;;;;4878639;29;20113;-78
2024/03/05 18:09:20;;;;;;;0.10;0.10;;;8.60;82.90;;;;;;4880895;29;20126;-81
2024/03/05 18:11:47;;;;;;;0.10;0.10;;;8.60;83.40;;;;;;4860533;29;20155;-82
2024/03/05 18:14:18;;;;;;;0.10;0.10;;;8.50;83.30;;;;;;4877405;29;20067;-80
2024/03/05 18:16:44;;;;;;;0.10;0.10;;;8.40;83.10;;;;;;4884271;29;20021;-81
2024/03/05 18:19:09;;;;;;;0.10;0.10;;;8.40;83.50;;;;;;4885115;29;20036;-79
2024/03/05 18:21:35;;;;;;;0.10;0.10;;;8.40;83.50;;;;;;4884625;29;20110;-80
2024/03/05 18:24:03;;;;;;;0.10;0.10;;;8.30;83.60;;;;;;4883449;29;20033;-80
2024/03/05 18:26:30;;;;;;;0.10;0.10;;;8.30;83.70;;;;;;4884593;29;20393;-82
2024/03/05 18:28:55;;;;;;;0.10;0.10;;;8.30;83.60;;;;;;4884689;29;20053;-76
2024/03/05 18:31:23;;;;;;;0.10;0.10;;;8.20;83.60;;;;;;4868346;29;20052;-76